sensor_id;sensor_type;location;lat;lon;timestamp;pressure;altitude;pressure_sealevel;temperature;humidity
30682;BME280;17439;48.092;11.842;2023-03-25T00:01:03;94932.69;;;10.63;69.37
30682;BME280;17439;48.092;11.842;2023-03-25T00:03:31;94920.09;;;10.59;69.14
30682;BME280;17439;48.092;11.842;2023-03-25T00:05:58;94935.59;;;10.58;69.53
30682;BME280;17439;48.092;11.842;2023-03-25T00:08:25;94931.59;;;10.56;69.51
30682;BME280;17439;48.092;11.842;2023-03-25T00:10:53;94925.72;;;10.53;69.42
30682;BME280;17439;48.092;11.842;2023-03-25T00:13:20;94922.03;;;10.49;69.43
30682;BME280;17439;48.092;11.842;2023-03-25T00:15:48;94929.69;;;10.47;69.50
30682;BME280;17439;48.092;11.842;2023-03-25T00:18:15;94922.53;;;10.43;69.20
30682;BME280;17439;48.092;11.842;2023-03-25T00:20:42;94927.00;;;10.39;69.12
30682;BME280;17439;48.092;11.842;2023-03-25T00:23:08;94921.13;;;10.37;69.20
30682;BME280;17439;48.092;11.842;2023-03-25T00:25:35;94930.38;;;10.36;69.52
30682;BME280;17439;48.092;11.842;2023-03-25T00:28:01;94928.09;;;10.29;69.11
30682;BME280;17439;48.092;11.842;2023-03-25T00:30:28;94925.72;;;10.27;69.06
30682;BME280;17439;48.092;11.842;2023-03-25T00:32:55;94919.84;;;10.25;68.97
30682;BME280;17439;48.092;11.842;2023-03-25T00:35:22;94913.94;;;10.23;69.20
30682;BME280;17439;48.092;11.842;2023-03-25T00:37:50;94918.56;;;10.23;69.00
30682;BME280;17439;48.092;11.842;2023-03-25T00:40:17;94916.84;;;10.18;67.72
30682;BME280;17439;48.092;11.842;2023-03-25T00:42:44;94914.13;;;10.18;69.35
30682;BME280;17439;48.092;11.842;2023-03-25T00:45:11;94911.25;;;10.14;68.96
30682;BME280;17439;48.092;11.842;2023-03-25T00:47:38;94917.78;;;10.13;69.10
30682;BME280;17439;48.092;11.842;2023-03-25T00:50:05;94919.38;;;10.14;68.96
30682;BME280;17439;48.092;11.842;2023-03-25T00:52:32;94906.13;;;10.13;69.33
30682;BME280;17439;48.092;11.842;2023-03-25T00:54:58;94906.97;;;10.13;69.21
30682;BME280;17439;48.092;11.842;2023-03-25T00:57:25;94890.84;;;10.08;68.33
30682;BME280;17439;48.092;11.842;2023-03-25T00:59:52;94890.84;;;10.08;68.68
30682;BME280;17439;48.092;11.842;2023-03-25T01:02:19;94910.63;;;10.09;69.26
30682;BME280;17439;48.092;11.842;2023-03-25T01:04:46;94894.69;;;10.07;69.25
30682;BME280;17439;48.092;11.842;2023-03-25T01:07:13;94906.31;;;10.08;69.58
30682;BME280;17439;48.092;11.842;2023-03-25T01:09:42;94907.75;;;10.05;69.06
30682;BME280;17439;48.092;11.842;2023-03-25T01:12:09;94902.31;;;10.05;69.25
30682;BME280;17439;48.092;11.842;2023-03-25T01:14:35;94902.31;;;10.05;69.32
30682;BME280;17439;48.092;11.842;2023-03-25T01:17:02;94889.91;;;10.04;69.11
30682;BME280;17439;48.092;11.842;2023-03-25T01:19:29;94890.38;;;10.06;69.42
30682;BME280;17439;48.092;11.842;2023-03-25T01:21:56;94884.19;;;10.06;69.13
30682;BME280;17439;48.092;11.842;2023-03-25T01:24:22;94886.06;;;10.05;68.60
30682;BME280;17439;48.092;11.842;2023-03-25T01:26:49;94883.69;;;10.12;69.70
30682;BME280;17439;48.092;11.842;2023-03-25T01:29:18;94889.25;;;10.16;69.50
30682;BME280;17439;48.092;11.842;2023-03-25T01:31:45;94884.31;;;10.18;69.71
30682;BME280;17439;48.092;11.842;2023-03-25T01:34:13;94881.75;;;10.22;69.63
30682;BME280;17439;48.092;11.842;2023-03-25T01:36:40;94877.59;;;10.24;69.88
30682;BME280;17439;48.092;11.842;2023-03-25T01:39:07;94882.38;;;10.27;69.72
30682;BME280;17439;48.092;11.842;2023-03-25T01:41:35;94876.16;;;10.27;69.07
30682;BME280;17439;48.092;11.842;2023-03-25T01:46:47;94873.00;;;10.33;69.76
30682;BME280;17439;48.092;11.842;2023-03-25T01:49:38;94876.00;;;10.32;62.05
30682;BME280;17439;48.092;11.842;2023-03-25T01:52:23;94871.09;;;10.34;62.94
30682;BME280;17439;48.092;11.842;2023-03-25T01:54:52;94864.84;;;10.42;68.42
30682;BME280;17439;48.092;11.842;2023-03-25T01:57:21;94872.34;;;10.45;69.34
30682;BME280;17439;48.092;11.842;2023-03-25T01:59:49;94872.47;;;10.49;68.68
30682;BME280;17439;48.092;11.842;2023-03-25T02:02:17;94877.25;;;10.52;68.82
30682;BME280;17439;48.092;11.842;2023-03-25T02:07:17;94875.31;;;10.61;69.43
30682;BME280;17439;48.092;11.842;2023-03-25T02:09:44;94863.00;;;10.64;67.44
30682;BME280;17439;48.092;11.842;2023-03-25T02:12:11;94862.34;;;10.67;68.20
30682;BME280;17439;48.092;11.842;2023-03-25T02:14:38;94869.50;;;10.71;68.04
30682;BME280;17439;48.092;11.842;2023-03-25T02:17:15;94869.66;;;10.75;67.20
30682;BME280;17439;48.092;11.842;2023-03-25T02:26:18;94874.91;;;10.80;59.48
30682;BME280;17439;48.092;11.842;2023-03-25T02:29:02;94864.78;;;10.89;65.03
30682;BME280;17439;48.092;11.842;2023-03-25T02:34:37;94863.66;;;10.99;66.98
30682;BME280;17439;48.092;11.842;2023-03-25T02:37:50;94851.06;;;10.95;62.54
30682;BME280;17439;48.092;11.842;2023-03-25T02:40:26;94849.34;;;10.90;61.91
30682;BME280;17439;48.092;11.842;2023-03-25T02:43:10;94843.25;;;10.93;60.82
30682;BME280;17439;48.092;11.842;2023-03-25T02:45:45;94847.22;;;10.96;61.07
30682;BME280;17439;48.092;11.842;2023-03-25T02:48:18;94855.03;;;10.97;64.86
30682;BME280;17439;48.092;11.842;2023-03-25T02:50:52;94860.19;;;10.90;61.44
30682;BME280;17439;48.092;11.842;2023-03-25T02:53:26;94862.09;;;10.89;63.14
30682;BME280;17439;48.092;11.842;2023-03-25T02:55:59;94865.00;;;10.84;60.72
30682;BME280;17439;48.092;11.842;2023-03-25T02:58:28;94868.53;;;10.76;63.47
30682;BME280;17439;48.092;11.842;2023-03-25T03:00:56;94872.03;;;10.77;64.87
30682;BME280;17439;48.092;11.842;2023-03-25T03:03:24;94861.38;;;10.71;63.21
30682;BME280;17439;48.092;11.842;2023-03-25T03:05:57;94866.66;;;10.68;62.61
30682;BME280;17439;48.092;11.842;2023-03-25T03:08:42;94862.69;;;10.65;62.47
30682;BME280;17439;48.092;11.842;2023-03-25T03:11:28;94859.69;;;10.58;60.87
30682;BME280;17439;48.092;11.842;2023-03-25T03:14:22;94860.47;;;10.59;63.84
30682;BME280;17439;48.092;11.842;2023-03-25T03:16:55;94867.00;;;10.58;65.38
30682;BME280;17439;48.092;11.842;2023-03-25T03:19:37;94871.81;;;10.52;62.57
30682;BME280;17439;48.092;11.842;2023-03-25T03:22:10;94857.50;;;10.51;65.41
30682;BME280;17439;48.092;11.842;2023-03-25T03:24:46;94873.06;;;10.55;65.34
30682;BME280;17439;48.092;11.842;2023-03-25T03:27:20;94870.88;;;10.48;59.99
30682;BME280;17439;48.092;11.842;2023-03-25T03:30:05;94867.19;;;10.52;59.32
30682;BME280;17439;48.092;11.842;2023-03-25T03:32:58;94850.59;;;10.54;62.62
30682;BME280;17439;48.092;11.842;2023-03-25T03:35:36;94853.13;;;10.59;64.33
30682;BME280;17439;48.092;11.842;2023-03-25T03:38:07;94857.31;;;10.57;63.13
30682;BME280;17439;48.092;11.842;2023-03-25T03:40:36;94869.41;;;10.59;65.09
30682;BME280;17439;48.092;11.842;2023-03-25T03:43:11;94871.78;;;10.61;63.78
30682;BME280;17439;48.092;11.842;2023-03-25T03:45:43;94863.97;;;10.59;63.62
30682;BME280;17439;48.092;11.842;2023-03-25T03:48:19;94871.31;;;10.59;63.33
30682;BME280;17439;48.092;11.842;2023-03-25T03:50:51;94870.38;;;10.55;61.22
30682;BME280;17439;48.092;11.842;2023-03-25T03:53:24;94864.94;;;10.55;63.64
30682;BME280;17439;48.092;11.842;2023-03-25T03:58:28;94874.84;;;10.50;60.96
30682;BME280;17439;48.092;11.842;2023-03-25T04:01:14;94877.59;;;10.42;60.39
30682;BME280;17439;48.092;11.842;2023-03-25T04:06:18;94901.97;;;10.50;64.66
30682;BME280;17439;48.092;11.842;2023-03-25T04:09:02;94888.09;;;10.43;59.99
30682;BME280;17439;48.092;11.842;2023-03-25T04:11:39;94897.38;;;10.42;61.57
30682;BME280;17439;48.092;11.842;2023-03-25T04:14:09;94891.44;;;10.40;62.85
30682;BME280;17439;48.092;11.842;2023-03-25T04:16:36;94902.78;;;10.25;62.17
30682;BME280;17439;48.092;11.842;2023-03-25T04:19:04;94892.41;;;10.27;63.29
30682;BME280;17439;48.092;11.842;2023-03-25T04:21:32;94893.38;;;10.22;63.23
30682;BME280;17439;48.092;11.842;2023-03-25T04:23:58;94893.38;;;10.22;64.21
30682;BME280;17439;48.092;11.842;2023-03-25T04:26:27;94882.59;;;10.13;63.06
30682;BME280;17439;48.092;11.842;2023-03-25T04:28:55;94888.97;;;10.09;62.60
30682;BME280;17439;48.092;11.842;2023-03-25T04:31:23;94887.69;;;10.06;63.80
30682;BME280;17439;48.092;11.842;2023-03-25T04:33:50;94886.72;;;10.02;64.07
30682;BME280;17439;48.092;11.842;2023-03-25T04:36:16;94887.22;;;9.95;63.53
30682;BME280;17439;48.092;11.842;2023-03-25T04:38:43;94897.25;;;9.95;64.70
30682;BME280;17439;48.092;11.842;2023-03-25T04:41:11;94893.44;;;9.87;63.02
30682;BME280;17439;48.092;11.842;2023-03-25T04:43:38;94899.00;;;9.82;63.52
30682;BME280;17439;48.092;11.842;2023-03-25T04:46:05;94894.09;;;9.75;62.98
30682;BME280;17439;48.092;11.842;2023-03-25T04:48:33;94902.66;;;9.77;64.09
30682;BME280;17439;48.092;11.842;2023-03-25T04:51:01;94897.91;;;9.74;63.53
30682;BME280;17439;48.092;11.842;2023-03-25T04:53:28;94896.13;;;9.70;63.47
30682;BME280;17439;48.092;11.842;2023-03-25T04:55:55;94897.91;;;9.66;63.29
30682;BME280;17439;48.092;11.842;2023-03-25T04:58:22;94892.31;;;9.71;64.29
30682;BME280;17439;48.092;11.842;2023-03-25T05:00:50;94899.16;;;9.68;63.26
30682;BME280;17439;48.092;11.842;2023-03-25T05:03:17;94906.31;;;9.55;58.29
30682;BME280;17439;48.092;11.842;2023-03-25T05:05:44;94896.47;;;9.68;63.78
30682;BME280;17439;48.092;11.842;2023-03-25T05:08:11;94890.88;;;9.73;64.17
30682;BME280;17439;48.092;11.842;2023-03-25T05:10:37;94894.72;;;9.72;63.12
30682;BME280;17439;48.092;11.842;2023-03-25T05:13:06;94892.94;;;9.76;64.16
30682;BME280;17439;48.092;11.842;2023-03-25T05:15:34;94892.16;;;9.76;63.67
30682;BME280;17439;48.092;11.842;2023-03-25T05:18:02;94887.06;;;9.74;63.57
30682;BME280;17439;48.092;11.842;2023-03-25T05:20:28;94889.78;;;9.74;63.63
30682;BME280;17439;48.092;11.842;2023-03-25T05:22:55;94881.81;;;9.69;62.50
30682;BME280;17439;48.092;11.842;2023-03-25T05:25:22;94886.09;;;9.70;62.88
30682;BME280;17439;48.092;11.842;2023-03-25T05:27:48;94887.88;;;9.66;61.76
30682;BME280;17439;48.092;11.842;2023-03-25T05:30:15;94891.38;;;9.67;62.82
30682;BME280;17439;48.092;11.842;2023-03-25T05:32:42;94881.81;;;9.69;63.38
30682;BME280;17439;48.092;11.842;2023-03-25T05:35:09;94889.31;;;9.72;63.89
30682;BME280;17439;48.092;11.842;2023-03-25T05:37:35;94880.06;;;9.73;63.47
30682;BME280;17439;48.092;11.842;2023-03-25T05:40:02;94892.47;;;9.74;63.77
30682;BME280;17439;48.092;11.842;2023-03-25T05:42:40;94887.69;;;9.71;63.42
30682;BME280;17439;48.092;11.842;2023-03-25T05:45:08;94902.53;;;9.74;63.63
30682;BME280;17439;48.092;11.842;2023-03-25T05:47:35;94910.97;;;9.72;63.09
30682;BME280;17439;48.092;11.842;2023-03-25T05:50:01;94913.66;;;9.72;63.40
30682;BME280;17439;48.092;11.842;2023-03-25T05:52:28;94922.41;;;9.78;63.80
30682;BME280;17439;48.092;11.842;2023-03-25T05:54:55;94927.50;;;9.79;63.50
30682;BME280;17439;48.092;11.842;2023-03-25T05:57:21;94914.63;;;9.85;64.27
30682;BME280;17439;48.092;11.842;2023-03-25T05:59:48;94932.63;;;9.90;63.78
30682;BME280;17439;48.092;11.842;2023-03-25T06:02:15;94920.63;;;10.08;64.16
30682;BME280;17439;48.092;11.842;2023-03-25T06:04:43;94925.41;;;10.11;64.26
30682;BME280;17439;48.092;11.842;2023-03-25T06:07:10;94923.19;;;10.22;61.64
30682;BME280;17439;48.092;11.842;2023-03-25T06:09:37;94933.53;;;10.29;63.97
30682;BME280;17439;48.092;11.842;2023-03-25T06:12:04;94939.94;;;10.33;63.22
30682;BME280;17439;48.092;11.842;2023-03-25T06:14:31;94936.22;;;10.46;63.92
30682;BME280;17439;48.092;11.842;2023-03-25T06:16:57;94943.22;;;10.56;63.63
30682;BME280;17439;48.092;11.842;2023-03-25T06:19:24;94937.66;;;10.61;62.01
30682;BME280;17439;48.092;11.842;2023-03-25T06:21:51;94948.16;;;10.63;59.19
30682;BME280;17439;48.092;11.842;2023-03-25T06:24:17;94969.34;;;10.69;61.46
30682;BME280;17439;48.092;11.842;2023-03-25T06:26:44;94972.22;;;10.73;61.53
30682;BME280;17439;48.092;11.842;2023-03-25T06:29:11;94970.28;;;10.74;61.59
30682;BME280;17439;48.092;11.842;2023-03-25T06:31:37;94979.38;;;10.78;61.69
30682;BME280;17439;48.092;11.842;2023-03-25T06:34:04;94973.31;;;10.81;61.40
30682;BME280;17439;48.092;11.842;2023-03-25T06:36:31;94979.00;;;10.88;61.63
30682;BME280;17439;48.092;11.842;2023-03-25T06:38:58;94975.97;;;10.89;61.31
30682;BME280;17439;48.092;11.842;2023-03-25T06:41:25;94990.03;;;10.92;60.02
30682;BME280;17439;48.092;11.842;2023-03-25T06:44:03;94978.38;;;10.91;60.38
30682;BME280;17439;48.092;11.842;2023-03-25T06:46:55;94989.72;;;10.93;59.50
30682;BME280;17439;48.092;11.842;2023-03-25T06:49:28;94987.78;;;10.94;59.83
30682;BME280;17439;48.092;11.842;2023-03-25T06:51:56;94978.88;;;10.93;58.36
30682;BME280;17439;48.092;11.842;2023-03-25T06:54:23;95006.63;;;10.90;58.16
30682;BME280;17439;48.092;11.842;2023-03-25T06:56:49;95010.94;;;10.82;56.74
30682;BME280;17439;48.092;11.842;2023-03-25T06:59:16;95009.66;;;10.80;58.16
30682;BME280;17439;48.092;11.842;2023-03-25T07:01:43;95002.16;;;10.77;57.60
30682;BME280;17439;48.092;11.842;2023-03-25T07:04:10;95017.19;;;10.74;58.12
30682;BME280;17439;48.092;11.842;2023-03-25T07:06:36;95004.44;;;10.66;56.77
30682;BME280;17439;48.092;11.842;2023-03-25T07:09:03;95013.88;;;10.60;57.25
30682;BME280;17439;48.092;11.842;2023-03-25T07:11:31;95021.69;;;10.61;57.87
30682;BME280;17439;48.092;11.842;2023-03-25T07:13:58;95001.13;;;10.51;56.42
30682;BME280;17439;48.092;11.842;2023-03-25T07:16:25;95013.22;;;10.54;59.22
30682;BME280;17439;48.092;11.842;2023-03-25T07:18:52;95014.19;;;10.49;55.89
30682;BME280;17439;48.092;11.842;2023-03-25T07:21:19;95016.91;;;10.49;58.16
30682;BME280;17439;48.092;11.842;2023-03-25T07:23:46;95015.63;;;10.47;57.47
30682;BME280;17439;48.092;11.842;2023-03-25T07:26:13;95011.66;;;10.44;57.29
30682;BME280;17439;48.092;11.842;2023-03-25T07:28:40;95027.44;;;10.42;57.79
30682;BME280;17439;48.092;11.842;2023-03-25T07:31:11;95027.44;;;10.42;56.16
30682;BME280;17439;48.092;11.842;2023-03-25T07:33:39;95028.69;;;10.53;58.27
30682;BME280;17439;48.092;11.842;2023-03-25T07:36:07;95034.28;;;10.48;57.66
30682;BME280;17439;48.092;11.842;2023-03-25T07:38:34;95033.47;;;10.48;57.86
30682;BME280;17439;48.092;11.842;2023-03-25T07:41:05;95033.16;;;10.49;57.60
30682;BME280;17439;48.092;11.842;2023-03-25T07:43:32;95052.13;;;10.49;57.63
30682;BME280;17439;48.092;11.842;2023-03-25T07:46:18;95050.06;;;10.46;57.72
30682;BME280;17439;48.092;11.842;2023-03-25T07:48:45;95050.22;;;10.41;56.95
30682;BME280;17439;48.092;11.842;2023-03-25T07:51:11;95056.75;;;10.40;57.18
30682;BME280;17439;48.092;11.842;2023-03-25T07:53:38;95051.34;;;10.49;57.97
30682;BME280;17439;48.092;11.842;2023-03-25T07:56:05;95045.44;;;10.56;58.19
30682;BME280;17439;48.092;11.842;2023-03-25T07:58:32;95047.81;;;10.57;57.96
30682;BME280;17439;48.092;11.842;2023-03-25T08:00:59;95052.59;;;10.60;57.45
30682;BME280;17439;48.092;11.842;2023-03-25T08:03:25;95048.16;;;10.64;57.62
30682;BME280;17439;48.092;11.842;2023-03-25T08:05:53;95054.50;;;10.68;57.31
30682;BME280;17439;48.092;11.842;2023-03-25T08:08:20;95043.81;;;10.72;58.58
30682;BME280;17439;48.092;11.842;2023-03-25T08:10:46;95066.63;;;10.71;58.41
30682;BME280;17439;48.092;11.842;2023-03-25T08:13:13;95061.38;;;10.66;57.18
30682;BME280;17439;48.092;11.842;2023-03-25T08:15:40;95062.47;;;10.74;57.05
30682;BME280;17439;48.092;11.842;2023-03-25T08:18:06;95056.41;;;10.77;56.87
30682;BME280;17439;48.092;11.842;2023-03-25T08:20:34;95055.78;;;10.71;56.44
30682;BME280;17439;48.092;11.842;2023-03-25T08:23:01;95065.03;;;10.79;57.37
30682;BME280;17439;48.092;11.842;2023-03-25T08:25:31;95043.81;;;10.81;57.20
30682;BME280;17439;48.092;11.842;2023-03-25T08:27:57;95057.38;;;10.81;57.56
30682;BME280;17439;48.092;11.842;2023-03-25T08:30:24;95065.47;;;10.89;57.47
30682;BME280;17439;48.092;11.842;2023-03-25T08:32:51;95058.75;;;10.96;57.66
30682;BME280;17439;48.092;11.842;2023-03-25T08:35:19;95041.19;;;11.11;57.17
30682;BME280;17439;48.092;11.842;2023-03-25T08:37:47;95050.25;;;11.15;57.87
30682;BME280;17439;48.092;11.842;2023-03-25T08:40:14;95068.72;;;11.30;57.80
30682;BME280;17439;48.092;11.842;2023-03-25T08:42:40;95050.84;;;11.38;57.75
30682;BME280;17439;48.092;11.842;2023-03-25T08:45:08;95055.88;;;11.48;57.51
30682;BME280;17439;48.092;11.842;2023-03-25T08:47:34;95066.41;;;11.50;56.03
30682;BME280;17439;48.092;11.842;2023-03-25T08:50:02;95057.75;;;11.56;56.71
30682;BME280;17439;48.092;11.842;2023-03-25T08:52:28;95059.03;;;11.59;56.83
30682;BME280;17439;48.092;11.842;2023-03-25T08:54:55;95059.16;;;11.62;55.75
30682;BME280;17439;48.092;11.842;2023-03-25T08:57:22;95051.53;;;11.65;55.96
30682;BME280;17439;48.092;11.842;2023-03-25T08:59:48;95053.25;;;11.69;56.36
30682;BME280;17439;48.092;11.842;2023-03-25T09:02:15;95059.34;;;11.66;55.28
30682;BME280;17439;48.092;11.842;2023-03-25T09:04:42;95051.97;;;11.67;55.56
30682;BME280;17439;48.092;11.842;2023-03-25T09:07:09;95055.47;;;11.67;55.46
30682;BME280;17439;48.092;11.842;2023-03-25T09:09:39;95052.63;;;11.64;55.62
30682;BME280;17439;48.092;11.842;2023-03-25T09:12:06;95050.69;;;11.64;55.90
30682;BME280;17439;48.092;11.842;2023-03-25T09:14:33;95055.47;;;11.67;56.75
30682;BME280;17439;48.092;11.842;2023-03-25T09:17:00;95042.19;;;11.44;51.36
30682;BME280;17439;48.092;11.842;2023-03-25T09:19:26;95044.69;;;11.58;54.93
30682;BME280;17439;48.092;11.842;2023-03-25T09:21:53;95040.97;;;11.63;56.54
30682;BME280;17439;48.092;11.842;2023-03-25T09:24:20;95049.59;;;11.65;57.34
30682;BME280;17439;48.092;11.842;2023-03-25T09:26:47;95044.47;;;11.64;56.06
30682;BME280;17439;48.092;11.842;2023-03-25T09:29:14;95044.28;;;11.69;55.93
30682;BME280;17439;48.092;11.842;2023-03-25T09:31:41;95035.22;;;11.65;55.64
30682;BME280;17439;48.092;11.842;2023-03-25T09:34:08;95035.03;;;11.70;56.55
30682;BME280;17439;48.092;11.842;2023-03-25T09:36:34;95031.53;;;11.69;55.10
30682;BME280;17439;48.092;11.842;2023-03-25T09:39:02;95040.06;;;11.80;56.50
30682;BME280;17439;48.092;11.842;2023-03-25T09:41:45;95032.69;;;11.89;56.46
30682;BME280;17439;48.092;11.842;2023-03-25T09:44:21;95031.84;;;11.97;52.64
30682;BME280;17439;48.092;11.842;2023-03-25T09:46:52;95029.00;;;12.15;56.67
30682;BME280;17439;48.092;11.842;2023-03-25T09:49:23;95029.09;;;12.27;53.16
30682;BME280;17439;48.092;11.842;2023-03-25T09:51:51;95026.56;;;12.43;56.18
30682;BME280;17439;48.092;11.842;2023-03-25T09:54:24;95021.06;;;12.52;55.15
30682;BME280;17439;48.092;11.842;2023-03-25T09:56:56;95018.38;;;12.64;54.13
30682;BME280;17439;48.092;11.842;2023-03-25T09:59:48;95003.53;;;12.62;51.75
30682;BME280;17439;48.092;11.842;2023-03-25T10:02:29;95009.81;;;12.75;50.34
30682;BME280;17439;48.092;11.842;2023-03-25T10:08:15;94996.25;;;12.99;52.91
30682;BME280;17439;48.092;11.842;2023-03-25T10:13:37;94998.03;;;13.29;51.73
30682;BME280;17439;48.092;11.842;2023-03-25T10:19:25;94994.88;;;13.39;47.91
30682;BME280;17439;48.092;11.842;2023-03-25T10:22:03;94974.56;;;13.49;49.19
30682;BME280;17439;48.092;11.842;2023-03-25T10:24:33;94970.47;;;13.55;47.03
30682;BME280;17439;48.092;11.842;2023-03-25T10:27:39;94968.44;;;13.52;48.49
30682;BME280;17439;48.092;11.842;2023-03-25T10:32:40;94964.94;;;13.51;48.85
30682;BME280;17439;48.092;11.842;2023-03-25T10:35:24;94952.56;;;13.54;46.59
30682;BME280;17439;48.092;11.842;2023-03-25T10:37:53;94949.63;;;13.59;48.74
30682;BME280;17439;48.092;11.842;2023-03-25T10:40:26;94940.66;;;13.58;45.85
30682;BME280;17439;48.092;11.842;2023-03-25T10:45:54;94920.78;;;13.58;46.75
30682;BME280;17439;48.092;11.842;2023-03-25T10:48:24;94931.53;;;13.79;46.69
30682;BME280;17439;48.092;11.842;2023-03-25T10:50:54;94935.50;;;13.82;48.60
30682;BME280;17439;48.092;11.842;2023-03-25T10:53:27;94933.00;;;13.89;49.79
30682;BME280;17439;48.092;11.842;2023-03-25T10:55:58;94948.19;;;13.90;48.77
30682;BME280;17439;48.092;11.842;2023-03-25T10:58:28;94950.88;;;14.02;48.73
30682;BME280;17439;48.092;11.842;2023-03-25T11:00:55;94962.13;;;14.01;49.44
30682;BME280;17439;48.092;11.842;2023-03-25T11:03:28;94955.69;;;13.93;48.94
30682;BME280;17439;48.092;11.842;2023-03-25T11:05:56;94926.53;;;13.81;50.61
30682;BME280;17439;48.092;11.842;2023-03-25T11:08:23;94933.59;;;13.70;50.26
30682;BME280;17439;48.092;11.842;2023-03-25T11:10:51;94915.75;;;13.72;47.76
30682;BME280;17439;48.092;11.842;2023-03-25T11:13:28;94931.91;;;13.65;47.72
30682;BME280;17439;48.092;11.842;2023-03-25T11:16:00;94923.84;;;13.69;47.03
30682;BME280;17439;48.092;11.842;2023-03-25T11:18:33;94919.66;;;13.59;46.67
30682;BME280;17439;48.092;11.842;2023-03-25T11:21:10;94914.66;;;13.49;46.67
30682;BME280;17439;48.092;11.842;2023-03-25T11:23:47;94918.06;;;13.46;48.20
30682;BME280;17439;48.092;11.842;2023-03-25T11:26:22;94890.97;;;13.49;47.48
30682;BME280;17439;48.092;11.842;2023-03-25T11:28:53;94908.44;;;13.48;47.87
30682;BME280;17439;48.092;11.842;2023-03-25T11:31:22;94891.66;;;13.46;49.18
30682;BME280;17439;48.092;11.842;2023-03-25T11:36:37;94906.38;;;13.70;47.63
30682;BME280;17439;48.092;11.842;2023-03-25T11:39:24;94881.03;;;13.69;45.71
30682;BME280;17439;48.092;11.842;2023-03-25T11:41:51;94888.63;;;13.76;48.31
30682;BME280;17439;48.092;11.842;2023-03-25T11:44:30;94885.34;;;13.70;46.22
30682;BME280;17439;48.092;11.842;2023-03-25T11:47:04;94875.00;;;13.76;44.86
30682;BME280;17439;48.092;11.842;2023-03-25T11:49:37;94886.56;;;13.85;45.54
30682;BME280;17439;48.092;11.842;2023-03-25T11:52:07;94886.44;;;13.94;47.37
30682;BME280;17439;48.092;11.842;2023-03-25T11:54:35;94880.63;;;13.95;46.00
30682;BME280;17439;48.092;11.842;2023-03-25T11:57:05;94873.25;;;13.96;45.65
30682;BME280;17439;48.092;11.842;2023-03-25T11:59:38;94870.59;;;14.00;45.22
30682;BME280;17439;48.092;11.842;2023-03-25T12:02:20;94863.69;;;14.02;46.53
30682;BME280;17439;48.092;11.842;2023-03-25T12:05:01;94881.78;;;13.82;42.75
30682;BME280;17439;48.092;11.842;2023-03-25T12:07:28;94862.25;;;13.92;46.23
30682;BME280;17439;48.092;11.842;2023-03-25T12:09:57;94858.88;;;13.83;45.37
30682;BME280;17439;48.092;11.842;2023-03-25T12:26:16;94870.03;;;14.06;46.05
30682;BME280;17439;48.092;11.842;2023-03-25T12:34:56;94849.19;;;14.14;45.38
30682;BME280;17439;48.092;11.842;2023-03-25T12:37:55;94842.88;;;14.10;42.54
30682;BME280;17439;48.092;11.842;2023-03-25T12:43:04;94853.59;;;14.19;46.27
30682;BME280;17439;48.092;11.842;2023-03-25T12:51:33;94854.84;;;14.21;44.40
30682;BME280;17439;48.092;11.842;2023-03-25T12:54:22;94855.03;;;14.28;44.11
30682;BME280;17439;48.092;11.842;2023-03-25T13:08:55;94858.66;;;14.32;45.72
30682;BME280;17439;48.092;11.842;2023-03-25T13:11:29;94854.44;;;14.35;46.05
30682;BME280;17439;48.092;11.842;2023-03-25T13:14:02;94846.28;;;14.35;44.28
30682;BME280;17439;48.092;11.842;2023-03-25T13:16:32;94850.13;;;14.34;44.48
30682;BME280;17439;48.092;11.842;2023-03-25T13:19:17;94859.69;;;14.28;44.16
30682;BME280;17439;48.092;11.842;2023-03-25T13:21:50;94862.00;;;14.26;45.50
30682;BME280;17439;48.092;11.842;2023-03-25T13:24:22;94880.81;;;14.31;44.44
30682;BME280;17439;48.092;11.842;2023-03-25T13:26:52;94872.72;;;14.34;45.36
30682;BME280;17439;48.092;11.842;2023-03-25T13:31:58;94892.25;;;14.21;45.55
30682;BME280;17439;48.092;11.842;2023-03-25T13:34:32;94866.63;;;14.09;43.42
30682;BME280;17439;48.092;11.842;2023-03-25T13:37:14;94873.00;;;14.01;42.54
30682;BME280;17439;48.092;11.842;2023-03-25T13:39:59;94874.06;;;14.12;45.03
30682;BME280;17439;48.092;11.842;2023-03-25T13:42:42;94873.25;;;13.96;43.13
30682;BME280;17439;48.092;11.842;2023-03-25T13:45:20;94910.44;;;14.04;46.32
30682;BME280;17439;48.092;11.842;2023-03-25T13:48:14;94896.78;;;14.17;44.87
30682;BME280;17439;48.092;11.842;2023-03-25T13:50:43;94900.91;;;14.10;45.88
30682;BME280;17439;48.092;11.842;2023-03-25T14:04:34;94892.22;;;13.92;46.82
30682;BME280;17439;48.092;11.842;2023-03-25T14:12:49;94911.88;;;13.86;45.16
30682;BME280;17439;48.092;11.842;2023-03-25T14:15:25;94875.66;;;13.85;45.89
30682;BME280;17439;48.092;11.842;2023-03-25T14:17:53;94855.38;;;13.83;47.25
30682;BME280;17439;48.092;11.842;2023-03-25T14:20:31;94869.94;;;13.62;44.02
30682;BME280;17439;48.092;11.842;2023-03-25T14:23:04;94878.31;;;13.69;45.71
30682;BME280;17439;48.092;11.842;2023-03-25T14:25:36;94877.78;;;13.64;45.64
30682;BME280;17439;48.092;11.842;2023-03-25T14:28:05;94881.09;;;13.57;45.30
30682;BME280;17439;48.092;11.842;2023-03-25T14:30:33;94863.06;;;13.52;45.39
30682;BME280;17439;48.092;11.842;2023-03-25T14:33:00;94863.84;;;13.53;46.00
30682;BME280;17439;48.092;11.842;2023-03-25T14:56:56;94860.88;;;13.58;44.51
30682;BME280;17439;48.092;11.842;2023-03-25T15:00:02;94861.09;;;13.65;45.52
30682;BME280;17439;48.092;11.842;2023-03-25T15:02:26;94841.22;;;13.65;44.53
30682;BME280;17439;48.092;11.842;2023-03-25T15:07:56;94841.59;;;13.91;43.91
30682;BME280;17439;48.092;11.842;2023-03-25T15:10:34;94830.19;;;14.02;43.22